KCEY

UTC

Kyle Oakley Field

Murray, Kentucky, United States

METAR - Current

KCEY 221415Z AUTO 16006KT 10SM CLR 22/18 A3013 RMK A01

Observed

Sep 22 14:15 UTC

Flight Rules

VFR

Wind

160° at 6 KTS

Visibility

10 SM

Clouds

  • Clear skies

Temperature

22°C=72°F

Dew Point

18°C=64°F

Humidity

78%

Altimeter

30.13 Hg

Pressure

1020.0 hPa

METAR - Previous

KCEY 221355Z AUTO 00000KT 10SM CLR 22/18 A3013 RMK A01

Observed

Sep 22 13:55 UTC

Flight Rules

VFR

Visibility

10 SM

Clouds

  • Clear skies

Temperature

22°C=72°F

Dew Point

18°C=64°F

Humidity

78%

Altimeter

30.13 Hg

Pressure

1020.0 hPa